| time (UTC) | temp F | wind direction | speed MPH | gust MPH | rain 1hr in | rain 24hr in | rain mn in | humidity % | barometer mb |
| 20260507113516 | 62 | 338 | 10.0 | 17.0 | 0.00 | 0.00 | 0.00 | 60 | 1010.0 |
| 20260507112516 | 62 | 338 | 8.0 | 15.0 | 0.00 | 0.00 | 0.00 | 61 | 1010.1 |
| 20260507111516 | 61 | 338 | 10.0 | 15.0 | 0.00 | 0.00 | 0.00 | 63 | 1010.3 |
| 20260507110516 | 61 | 338 | 7.0 | 15.0 | 0.00 | 0.00 | 0.00 | 66 | 1010.3 |
| 20260507105516 | 62 | 338 | 3.0 | 9.0 | 0.00 | 0.00 | 0.00 | 70 | 1010.4 |
| 20260507104516 | 61 | 338 | 2.0 | 8.0 | 0.00 | 0.00 | 0.00 | 71 | 1010.4 |
| 20260507103515 | 61 | 338 | 3.0 | 8.0 | 0.00 | 0.00 | 0.00 | 72 | 1010.6 |
| 20260507102516 | 62 | 338 | 5.0 | 11.0 | 0.00 | 0.00 | 0.00 | 70 | 1010.6 |
| 20260507101516 | 62 | 338 | 3.0 | 11.0 | 0.00 | 0.00 | 0.00 | 70 | 1010.7 |
| 20260507100536 | 62 | 338 | 1.0 | 8.0 | 0.00 | 0.00 | 0.00 | 70 | 1010.7 |
| 20260507095516 | 62 | 338 | 3.0 | 9.0 | 0.00 | 0.00 | 0.00 | 68 | 1010.9 |
| 20260507094536 | 63 | 338 | 4.0 | 10.0 | 0.00 | 0.00 | 0.00 | 67 | 1011.0 |
| 20260507093515 | 62 | 338 | 3.0 | 9.0 | 0.00 | 0.00 | 0.00 | 69 | 1011.1 |
| 20260507092515 | 60 | 338 | 2.0 | 7.0 | 0.00 | 0.00 | 0.00 | 71 | 1010.9 |
| 20260507091515 | 60 | 338 | 5.0 | 9.0 | 0.00 | 0.00 | 0.00 | 71 | 1010.9 |
| 20260507090515 | 60 | 338 | 4.0 | 11.0 | 0.00 | 0.00 | 0.00 | 71 | 1010.8 |
| 20260507085515 | 60 | 338 | 5.0 | 8.0 | 0.00 | 0.00 | 0.00 | 73 | 1010.8 |
| 20260507084516 | 59 | 338 | 3.0 | 7.0 | 0.00 | 0.00 | 0.00 | 74 | 1010.7 |
| 20260507083516 | 59 | 338 | 5.0 | 10.0 | 0.00 | 0.00 | 0.00 | 75 | 1010.7 |
| 20260507082515 | 59 | 338 | 2.0 | 5.0 | 0.00 | 0.00 | 0.00 | 75 | 1010.9 |
| 20260507081516 | 59 | 338 | 2.0 | 5.0 | 0.00 | 0.00 | 0.00 | 75 | 1011.0 |
| 20260507080517 | 59 | 338 | 3.0 | 8.0 | 0.00 | 0.00 | 0.00 | 76 | 1011.0 |
| 20260507075538 | 58 | 338 | 3.0 | 7.0 | 0.00 | 0.00 | 0.00 | 79 | 1010.7 |
| 20260507074537 | 57 | 338 | 3.0 | 5.0 | 0.00 | 0.00 | 0.00 | 81 | 1010.6 |
| 20260507073517 | 56 | 338 | 4.0 | 9.0 | 0.00 | 0.00 | 0.00 | 82 | 1010.3 |
| 20260507072517 | 56 | 338 | 5.0 | 8.0 | 0.00 | 0.00 | 0.00 | 83 | 1010.4 |
| 20260507071517 | 55 | 338 | 4.0 | 7.0 | 0.00 | 0.00 | 0.00 | 84 | 1010.3 |
| 20260507070517 | 55 | 338 | 4.0 | 7.0 | 0.00 | 0.00 | 0.00 | 85 | 1010.3 |
| 20260507065517 | 55 | 338 | 3.0 | 5.0 | 0.00 | 0.00 | 0.00 | 85 | 1010.6 |
| 20260507064517 | 54 | 338 | 4.0 | 7.0 | 0.00 | 0.00 | 0.00 | 85 | 1010.2 |
| 20260507063517 | 54 | 338 | 4.0 | 7.0 | 0.00 | 0.00 | 0.00 | 85 | 1010.1 |
| 20260507062517 | 54 | 338 | 2.0 | 4.0 | 0.00 | 0.00 | 0.00 | 84 | 1010.1 |
| 20260507061517 | 54 | 338 | 3.0 | 5.0 | 0.00 | 0.00 | 0.00 | 82 | 1009.9 |
| 20260507060519 | 53 | 338 | 4.0 | 5.0 | 0.00 | 0.00 | 0.00 | 82 | 1010.0 |
| 20260507055517 | 52 | 0.0 | 1.0 | 0.00 | 0.00 | 0.00 | 81 | 1010.2 | |
| 20260507054517 | 51 | 0.0 | 1.0 | 0.00 | 0.00 | 0.00 | 82 | 1010.0 | |
| 20260507053517 | 50 | 0.0 | 0.0 | 0.00 | 0.00 | 0.00 | 83 | 1009.8 | |
| 20260507052517 | 49 | 0.0 | 1.0 | 0.00 | 0.00 | 0.00 | 83 | 1009.7 | |
| 20260507051517 | 49 | 0.0 | 2.0 | 0.00 | 0.00 | 0.00 | 83 | 1009.6 | |
| 20260507050517 | 49 | 338 | 1.0 | 3.0 | 0.00 | 0.00 | 0.00 | 83 | 1009.6 |
| 20260507045517 | 48 | 0.0 | 0.0 | 0.00 | 0.00 | 0.00 | 84 | 1009.6 | |
| 20260507044537 | 48 | 0.0 | 0.0 | 0.00 | 0.00 | 0.00 | 84 | 1009.6 | |
| 20260507043537 | 48 | 0.0 | 0.0 | 0.00 | 0.00 | 0.00 | 84 | 1009.7 | |
| 20260507042557 | 48 | 0.0 | 0.0 | 0.00 | 0.00 | 0.00 | 85 | 1009.8 | |
| 20260507041517 | 49 | 0.0 | 0.0 | 0.00 | 0.00 | 0.00 | 84 | 1009.9 | |
| 20260507040517 | 49 | 0.0 | 0.0 | 0.00 | 0.00 | 0.00 | 85 | 1009.9 | |
| 20260507035517 | 49 | 0.0 | 0.0 | 0.00 | 0.00 | 0.00 | 84 | 1009.7 | |
| 20260507034517 | 50 | 0.0 | 0.0 | 0.00 | 0.00 | 0.00 | 85 | 1009.7 | |
| 20260507033517 | 51 | 0.0 | 0.0 | 0.00 | 0.00 | 0.00 | 84 | 1009.8 | |
| 20260507032537 | 51 | 23 | 2.0 | 3.0 | 0.00 | 0.00 | 0.00 | 84 | 1009.6 |
| 20260507031517 | 52 | 315 | 3.0 | 4.0 | 0.00 | 0.00 | 0.00 | 84 | 1009.6 |
| 20260507030517 | 52 | 315 | 4.0 | 5.0 | 0.00 | 0.00 | 0.00 | 84 | 1009.6 |
| 20260507025517 | 51 | 338 | 3.0 | 4.0 | 0.00 | 0.00 | 0.00 | 84 | 1009.6 |
| 20260507024517 | 52 | 0.0 | 0.0 | 0.00 | 0.00 | 0.00 | 84 | 1009.7 | |
| 20260507023537 | 52 | 0.0 | 0.0 | 0.00 | 0.00 | 0.00 | 84 | 1009.7 | |
| 20260507022517 | 52 | 338 | 2.0 | 3.0 | 0.00 | 0.00 | 0.00 | 84 | 1009.7 |
| 20260507021517 | 52 | 338 | 1.0 | 4.0 | 0.00 | 0.00 | 0.00 | 84 | 1009.9 |
| 20260507020537 | 52 | 338 | 2.0 | 4.0 | 0.00 | 0.00 | 0.00 | 84 | 1009.9 |
| 20260507015517 | 52 | 338 | 2.0 | 3.0 | 0.00 | 0.00 | 0.00 | 84 | 1010.1 |
| 20260507014537 | 52 | 338 | 3.0 | 4.0 | 0.00 | 0.00 | 0.00 | 84 | 1010.1 |
| 20260507013517 | 52 | 338 | 3.0 | 4.0 | 0.00 | 0.00 | 0.00 | 84 | 1010.1 |
| 20260507012517 | 51 | 338 | 1.0 | 5.0 | 0.00 | 0.00 | 0.00 | 84 | 1010.2 |
| 20260507011517 | 51 | 0.0 | 0.0 | 0.00 | 0.00 | 0.00 | 85 | 1010.2 | |
| 20260507010517 | 51 | 0.0 | 1.0 | 0.00 | 0.00 | 0.00 | 85 | 1010.3 | |
| 20260507005537 | 52 | 0.0 | 0.0 | 0.00 | 0.00 | 0.00 | 85 | 1010.5 | |
| 20260507004517 | 52 | 338 | 1.0 | 2.0 | 0.00 | 0.00 | 0.00 | 85 | 1010.6 |
| 20260507003517 | 53 | 0.0 | 1.0 | 0.00 | 0.00 | 0.00 | 85 | 1010.7 | |
| 20260507002537 | 53 | 338 | 2.0 | 3.0 | 0.00 | 0.00 | 0.00 | 84 | 1010.9 |
| 20260507001517 | 53 | 338 | 3.0 | 4.0 | 0.00 | 0.00 | 0.00 | 84 | 1011.0 |
| 20260507000517 | 53 | 338 | 4.0 | 7.0 | 0.00 | 0.00 | 0.00 | 84 | 1011.1 |
| 20260506235524 | 54 | 338 | 4.0 | 5.0 | 0.00 | 0.00 | 0.00 | 84 | 1010.9 |
| 20260506234516 | 54 | 338 | 3.0 | 5.0 | 0.00 | 0.00 | 0.00 | 84 | 1011.0 |
| 20260506233517 | 53 | 315 | 2.0 | 4.0 | 0.00 | 0.00 | 0.00 | 84 | 1011.0 |
| 20260506232516 | 53 | 338 | 2.0 | 3.0 | 0.00 | 0.00 | 0.00 | 84 | 1010.9 |
| 20260506231517 | 53 | 338 | 2.0 | 2.0 | 0.00 | 0.00 | 0.00 | 84 | 1011.0 |
| 20260506230517 | 53 | 338 | 1.0 | 2.0 | 0.00 | 0.00 | 0.00 | 83 | 1010.9 |
| 20260506225537 | 53 | 338 | 3.0 | 4.0 | 0.00 | 0.00 | 0.00 | 83 | 1011.1 |
| 20260506224516 | 54 | 315 | 3.0 | 5.0 | 0.00 | 0.00 | 0.00 | 83 | 1011.0 |
| 20260506223516 | 54 | 315 | 1.0 | 2.0 | 0.00 | 0.00 | 0.00 | 81 | 1011.1 |
| 20260506222517 | 55 | 338 | 2.0 | 4.0 | 0.00 | 0.00 | 0.00 | 82 | 1011.1 |
| 20260506221517 | 55 | 0.0 | 0.0 | 0.00 | 0.00 | 0.00 | 81 | 1011.0 | |
| 20260506220517 | 55 | 0.0 | 1.0 | 0.00 | 0.00 | 0.00 | 81 | 1011.0 | |
| 20260506215537 | 56 | 338 | 2.0 | 4.0 | 0.00 | 0.00 | 0.00 | 81 | 1011.0 |
| 20260506214517 | 56 | 338 | 4.0 | 5.0 | 0.00 | 0.00 | 0.00 | 81 | 1011.2 |
| 20260506213517 | 56 | 338 | 4.0 | 8.0 | 0.00 | 0.00 | 0.00 | 81 | 1011.2 |
| 20260506212516 | 56 | 338 | 5.0 | 9.0 | 0.00 | 0.00 | 0.00 | 81 | 1011.2 |
| 20260506211517 | 56 | 338 | 4.0 | 8.0 | 0.00 | 0.00 | 0.00 | 81 | 1011.2 |
| 20260506210517 | 56 | 338 | 6.0 | 9.0 | 0.00 | 0.00 | 0.00 | 81 | 1011.1 |
| 20260506205516 | 56 | 338 | 6.0 | 9.0 | 0.00 | 0.00 | 0.00 | 81 | 1011.0 |
| 20260506204517 | 56 | 338 | 4.0 | 8.0 | 0.00 | 0.00 | 0.00 | 81 | 1011.1 |
| 20260506203516 | 56 | 338 | 5.0 | 10.0 | 0.00 | 0.00 | 0.00 | 81 | 1010.8 |
| 20260506202516 | 56 | 338 | 7.0 | 12.0 | 0.00 | 0.00 | 0.00 | 80 | 1010.7 |
| 20260506201516 | 57 | 338 | 5.0 | 10.0 | 0.00 | 0.00 | 0.00 | 80 | 1010.6 |
| 20260506200517 | 57 | 338 | 7.0 | 10.0 | 0.00 | 0.00 | 0.00 | 80 | 1010.3 |
| 20260506195516 | 57 | 338 | 7.0 | 11.0 | 0.00 | 0.00 | 0.00 | 80 | 1010.0 |
| 20260506194517 | 57 | 338 | 7.0 | 11.0 | 0.00 | 0.00 | 0.00 | 79 | 1009.8 |
| 20260506193516 | 57 | 338 | 6.0 | 9.0 | 0.00 | 0.00 | 0.00 | 79 | 1009.8 |
| 20260506192517 | 57 | 338 | 2.0 | 8.0 | 0.00 | 0.00 | 0.00 | 79 | 1009.6 |
| 20260506191516 | 57 | 338 | 4.0 | 10.0 | 0.00 | 0.00 | 0.00 | 78 | 1009.5 |
| 20260506190517 | 57 | 338 | 3.0 | 7.0 | 0.00 | 0.00 | 0.00 | 77 | 1009.5 |
| 20260506185517 | 58 | 338 | 1.0 | 5.0 | 0.00 | 0.00 | 0.00 | 76 | 1009.4 |
| 20260506184517 | 58 | 338 | 4.0 | 9.0 | 0.00 | 0.00 | 0.00 | 75 | 1009.3 |
| 20260506183517 | 59 | 338 | 4.0 | 10.0 | 0.00 | 0.00 | 0.00 | 73 | 1009.1 |
| 20260506182517 | 59 | 338 | 5.0 | 11.0 | 0.00 | 0.00 | 0.00 | 73 | 1008.8 |
| 20260506181516 | 60 | 338 | 3.0 | 9.0 | 0.00 | 0.00 | 0.00 | 73 | 1008.9 |
| 20260506180516 | 60 | 338 | 3.0 | 8.0 | 0.00 | 0.00 | 0.00 | 72 | 1008.8 |
| 20260506175556 | 60 | 338 | 6.0 | 12.0 | 0.00 | 0.00 | 0.00 | 71 | 1008.7 |
| 20260506174516 | 61 | 338 | 8.0 | 13.0 | 0.00 | 0.00 | 0.00 | 70 | 1008.7 |
| 20260506173536 | 62 | 338 | 5.0 | 12.0 | 0.00 | 0.00 | 0.00 | 69 | 1008.9 |
| 20260506172516 | 63 | 338 | 7.0 | 12.0 | 0.00 | 0.00 | 0.00 | 67 | 1008.8 |
| 20260506171516 | 63 | 338 | 6.0 | 12.0 | 0.00 | 0.00 | 0.00 | 65 | 1008.7 |
| 20260506170516 | 64 | 338 | 6.0 | 12.0 | 0.00 | 0.00 | 0.00 | 65 | 1008.7 |
| 20260506165516 | 64 | 338 | 6.0 | 11.0 | 0.00 | 0.00 | 0.00 | 64 | 1008.7 |
| 20260506164516 | 65 | 338 | 6.0 | 15.0 | 0.00 | 0.00 | 0.00 | 62 | 1008.4 |
| 20260506163516 | 65 | 338 | 4.0 | 11.0 | 0.00 | 0.00 | 0.00 | 63 | 1008.4 |
| 20260506162516 | 66 | 338 | 4.0 | 10.0 | 0.00 | 0.00 | 0.00 | 62 | 1008.5 |
| 20260506161516 | 66 | 338 | 4.0 | 14.0 | 0.00 | 0.00 | 0.00 | 61 | 1008.4 |
| 20260506160536 | 67 | 338 | 6.0 | 13.0 | 0.00 | 0.00 | 0.00 | 58 | 1008.6 |
| 20260506155516 | 68 | 338 | 6.0 | 12.0 | 0.00 | 0.00 | 0.00 | 58 | 1008.7 |
| 20260506154516 | 68 | 338 | 6.0 | 11.0 | 0.00 | 0.00 | 0.00 | 57 | 1008.6 |
| 20260506153516 | 67 | 338 | 5.0 | 12.0 | 0.00 | 0.00 | 0.00 | 58 | 1008.6 |
| 20260506152516 | 65 | 338 | 5.0 | 11.0 | 0.00 | 0.00 | 0.00 | 64 | 1008.6 |
| 20260506151516 | 64 | 338 | 7.0 | 13.0 | 0.00 | 0.00 | 0.00 | 65 | 1008.5 |
| 20260506150516 | 63 | 338 | 9.0 | 13.0 | 0.00 | 0.00 | 0.00 | 67 | 1008.6 |
| 20260506145536 | 63 | 338 | 6.0 | 13.0 | 0.00 | 0.00 | 0.00 | 66 | 1008.4 |
| 20260506144536 | 64 | 338 | 7.0 | 14.0 | 0.00 | 0.00 | 0.00 | 66 | 1008.3 |
| 20260506143516 | 64 | 338 | 8.0 | 12.0 | 0.00 | 0.00 | 0.00 | 67 | 1008.5 |
| 20260506142516 | 64 | 338 | 7.0 | 11.0 | 0.00 | 0.00 | 0.00 | 68 | 1008.9 |
| 20260506141516 | 64 | 338 | 3.0 | 12.0 | 0.00 | 0.00 | 0.00 | 66 | 1008.9 |
| 20260506140516 | 64 | 338 | 8.0 | 13.0 | 0.00 | 0.00 | 0.00 | 66 | 1009.0 |
| 20260506135516 | 64 | 338 | 7.0 | 13.0 | 0.00 | 0.00 | 0.00 | 65 | 1009.0 |
| 20260506134516 | 64 | 338 | 2.0 | 11.0 | 0.00 | 0.00 | 0.00 | 65 | 1009.1 |
| 20260506133516 | 65 | 338 | 4.0 | 9.0 | 0.00 | 0.00 | 0.00 | 61 | 1009.3 |
| 20260506132516 | 65 | 338 | 5.0 | 12.0 | 0.00 | 0.00 | 0.00 | 61 | 1009.2 |
| 20260506131516 | 66 | 338 | 3.0 | 11.0 | 0.00 | 0.00 | 0.00 | 61 | 1009.3 |
| 20260506130516 | 65 | 338 | 1.0 | 5.0 | 0.00 | 0.00 | 0.00 | 63 | 1009.3 |
| 20260506125516 | 67 | 338 | 1.0 | 5.0 | 0.00 | 0.00 | 0.00 | 58 | 1009.4 |
| 20260506124536 | 69 | 0.0 | 5.0 | 0.00 | 0.00 | 0.00 | 51 | 1009.5 | |
| 20260506123516 | 69 | 338 | 6.0 | 15.0 | 0.00 | 0.00 | 0.00 | 53 | 1009.3 |
| 20260506122516 | 69 | 338 | 6.0 | 14.0 | 0.00 | 0.00 | 0.00 | 54 | 1009.4 |
| 20260506121516 | 69 | 338 | 4.0 | 12.0 | 0.00 | 0.00 | 0.00 | 52 | 1009.6 |
| 20260506120516 | 71 | 338 | 5.0 | 12.0 | 0.00 | 0.00 | 0.00 | 52 | 1009.8 |
| 20260506115516 | 71 | 338 | 4.0 | 11.0 | 0.00 | 0.00 | 0.00 | 53 | 1010.1 |
| 20260506114533 | 70 | 338 | 2.0 | 9.0 | 0.00 | 0.00 | 0.00 | 54 | 1010.1 |